sensor_id;sensor_type;location;lat;lon;timestamp;pressure;altitude;pressure_sealevel;temperature;humidity
56038;BME280;41907;47.848;9.000;2024-01-11T00:01:58;96480.66;;;-2.83;100.00
56038;BME280;41907;47.848;9.000;2024-01-11T00:04:23;96487.28;;;-2.81;100.00
56038;BME280;41907;47.848;9.000;2024-01-11T00:06:50;96493.31;;;-2.87;100.00
56038;BME280;41907;47.848;9.000;2024-01-11T00:09:15;96490.72;;;-3.00;100.00
56038;BME280;41907;47.848;9.000;2024-01-11T00:11:41;96490.94;;;-3.08;100.00
56038;BME280;41907;47.848;9.000;2024-01-11T00:14:07;96497.16;;;-3.03;100.00
56038;BME280;41907;47.848;9.000;2024-01-11T00:16:32;96496.38;;;-3.16;100.00
56038;BME280;41907;47.848;9.000;2024-01-11T00:18:57;96491.59;;;-3.32;100.00
56038;BME280;41907;47.848;9.000;2024-01-11T00:21:23;96498.19;;;-3.43;100.00
56038;BME280;41907;47.848;9.000;2024-01-11T00:23:49;96489.56;;;-3.44;100.00
56038;BME280;41907;47.848;9.000;2024-01-11T00:26:14;96491.78;;;-3.47;100.00
56038;BME280;41907;47.848;9.000;2024-01-11T00:28:40;96494.38;;;-3.54;100.00
56038;BME280;41907;47.848;9.000;2024-01-11T00:31:05;96489.16;;;-3.54;100.00
56038;BME280;41907;47.848;9.000;2024-01-11T00:33:31;96495.19;;;-3.60;100.00
56038;BME280;41907;47.848;9.000;2024-01-11T00:35:56;96493.78;;;-3.62;100.00
56038;BME280;41907;47.848;9.000;2024-01-11T00:38:22;96495.97;;;-3.66;100.00
56038;BME280;41907;47.848;9.000;2024-01-11T00:40:47;96495.38;;;-3.68;100.00
56038;BME280;41907;47.848;9.000;2024-01-11T00:43:12;96491.59;;;-3.59;100.00
56038;BME280;41907;47.848;9.000;2024-01-11T00:45:38;96497.78;;;-3.47;100.00
56038;BME280;41907;47.848;9.000;2024-01-11T00:48:04;96494.19;;;-3.52;100.00
56038;BME280;41907;47.848;9.000;2024-01-11T00:50:29;96504.03;;;-3.61;100.00
56038;BME280;41907;47.848;9.000;2024-01-11T00:52:55;96499.00;;;-3.69;100.00
56038;BME280;41907;47.848;9.000;2024-01-11T00:55:20;96496.78;;;-3.72;100.00
56038;BME280;41907;47.848;9.000;2024-01-11T00:57:45;96496.97;;;-3.73;100.00
56038;BME280;41907;47.848;9.000;2024-01-11T01:00:11;96491.19;;;-3.69;100.00
56038;BME280;41907;47.848;9.000;2024-01-11T01:02:40;96494.59;;;-3.62;100.00
56038;BME280;41907;47.848;9.000;2024-01-11T01:05:05;96490.75;;;-3.66;100.00
56038;BME280;41907;47.848;9.000;2024-01-11T01:07:31;96489.56;;;-3.63;100.00
56038;BME280;41907;47.848;9.000;2024-01-11T01:09:57;96496.59;;;-3.51;100.00
56038;BME280;41907;47.848;9.000;2024-01-11T01:12:22;96495.78;;;-3.45;100.00
56038;BME280;41907;47.848;9.000;2024-01-11T01:14:47;96513.63;;;-3.28;100.00
56038;BME280;41907;47.848;9.000;2024-01-11T01:17:13;96502.63;;;-3.44;100.00
56038;BME280;41907;47.848;9.000;2024-01-11T01:19:38;96503.81;;;-3.40;100.00
56038;BME280;41907;47.848;9.000;2024-01-11T01:22:03;96507.22;;;-3.46;100.00
56038;BME280;41907;47.848;9.000;2024-01-11T01:24:30;96507.00;;;-3.57;100.00
56038;BME280;41907;47.848;9.000;2024-01-11T01:26:56;96514.66;;;-3.49;100.00
56038;BME280;41907;47.848;9.000;2024-01-11T01:29:21;96510.25;;;-3.42;100.00
56038;BME280;41907;47.848;9.000;2024-01-11T01:31:46;96509.22;;;-3.61;100.00
56038;BME280;41907;47.848;9.000;2024-01-11T01:34:12;96509.00;;;-3.79;100.00
56038;BME280;41907;47.848;9.000;2024-01-11T01:36:37;96511.00;;;-3.88;100.00
56038;BME280;41907;47.848;9.000;2024-01-11T01:39:03;96503.00;;;-3.80;100.00
56038;BME280;41907;47.848;9.000;2024-01-11T01:41:28;96510.81;;;-3.73;100.00
56038;BME280;41907;47.848;9.000;2024-01-11T01:43:54;96518.03;;;-3.82;100.00
56038;BME280;41907;47.848;9.000;2024-01-11T01:46:22;96519.63;;;-3.81;100.00
56038;BME280;41907;47.848;9.000;2024-01-11T01:48:49;96522.03;;;-3.79;100.00
56038;BME280;41907;47.848;9.000;2024-01-11T01:51:14;96520.66;;;-3.68;100.00
56038;BME280;41907;47.848;9.000;2024-01-11T01:53:40;96526.25;;;-3.78;100.00
56038;BME280;41907;47.848;9.000;2024-01-11T01:56:06;96528.88;;;-3.71;100.00
56038;BME280;41907;47.848;9.000;2024-01-11T01:58:34;96526.88;;;-3.69;100.00
56038;BME280;41907;47.848;9.000;2024-01-11T02:01:00;96524.66;;;-3.79;100.00
56038;BME280;41907;47.848;9.000;2024-01-11T02:03:27;96536.88;;;-3.80;100.00
56038;BME280;41907;47.848;9.000;2024-01-11T02:05:54;96530.25;;;-3.82;100.00
56038;BME280;41907;47.848;9.000;2024-01-11T02:08:21;96526.03;;;-3.77;100.00
56038;BME280;41907;47.848;9.000;2024-01-11T02:10:47;96530.81;;;-3.87;100.00
56038;BME280;41907;47.848;9.000;2024-01-11T02:13:13;96537.50;;;-3.78;100.00
56038;BME280;41907;47.848;9.000;2024-01-11T02:15:39;96539.88;;;-3.76;100.00
56038;BME280;41907;47.848;9.000;2024-01-11T02:18:04;96533.84;;;-3.96;100.00
56038;BME280;41907;47.848;9.000;2024-01-11T02:20:31;96546.44;;;-4.00;100.00
56038;BME280;41907;47.848;9.000;2024-01-11T02:23:02;96543.22;;;-4.08;100.00
56038;BME280;41907;47.848;9.000;2024-01-11T02:25:28;96550.25;;;-3.96;100.00
56038;BME280;41907;47.848;9.000;2024-01-11T02:27:54;96539.63;;;-4.07;100.00
56038;BME280;41907;47.848;9.000;2024-01-11T02:30:19;96538.56;;;-4.13;100.00
56038;BME280;41907;47.848;9.000;2024-01-11T02:32:48;96545.63;;;-4.07;100.00
56038;BME280;41907;47.848;9.000;2024-01-11T02:35:15;96545.84;;;-4.02;100.00
56038;BME280;41907;47.848;9.000;2024-01-11T02:37:41;96539.81;;;-4.02;100.00
56038;BME280;41907;47.848;9.000;2024-01-11T02:40:07;96546.22;;;-4.05;100.00
56038;BME280;41907;47.848;9.000;2024-01-11T02:42:34;96542.22;;;-4.07;100.00
56038;BME280;41907;47.848;9.000;2024-01-11T02:45:00;96541.00;;;-4.12;100.00
56038;BME280;41907;47.848;9.000;2024-01-11T02:47:25;96540.38;;;-4.20;100.00
56038;BME280;41907;47.848;9.000;2024-01-11T02:49:51;96541.53;;;-4.23;100.00
56038;BME280;41907;47.848;9.000;2024-01-11T02:52:16;96543.75;;;-4.26;100.00
56038;BME280;41907;47.848;9.000;2024-01-11T02:54:42;96529.88;;;-4.33;100.00
56038;BME280;41907;47.848;9.000;2024-01-11T02:57:07;96533.47;;;-4.41;100.00
56038;BME280;41907;47.848;9.000;2024-01-11T02:59:32;96539.03;;;-4.51;100.00
56038;BME280;41907;47.848;9.000;2024-01-11T03:01:58;96534.78;;;-4.58;100.00
56038;BME280;41907;47.848;9.000;2024-01-11T03:04:23;96536.78;;;-4.60;100.00
56038;BME280;41907;47.848;9.000;2024-01-11T03:06:48;96533.97;;;-4.65;100.00
56038;BME280;41907;47.848;9.000;2024-01-11T03:09:14;96531.94;;;-4.70;100.00
56038;BME280;41907;47.848;9.000;2024-01-11T03:11:39;96531.09;;;-4.77;100.00
56038;BME280;41907;47.848;9.000;2024-01-11T03:14:06;96532.25;;;-4.86;100.00
56038;BME280;41907;47.848;9.000;2024-01-11T03:16:31;96531.44;;;-4.87;100.00
56038;BME280;41907;47.848;9.000;2024-01-11T03:18:56;96526.81;;;-4.91;100.00
56038;BME280;41907;47.848;9.000;2024-01-11T03:21:22;96522.19;;;-4.96;100.00
56038;BME280;41907;47.848;9.000;2024-01-11T03:23:47;96516.53;;;-4.99;100.00
56038;BME280;41907;47.848;9.000;2024-01-11T03:26:14;96522.31;;;-5.04;100.00
56038;BME280;41907;47.848;9.000;2024-01-11T03:28:39;96520.22;;;-5.21;100.00
56038;BME280;41907;47.848;9.000;2024-01-11T03:31:05;96524.84;;;-5.17;100.00
56038;BME280;41907;47.848;9.000;2024-01-11T03:33:30;96515.19;;;-5.23;100.00
56038;BME280;41907;47.848;9.000;2024-01-11T03:35:55;96523.81;;;-5.22;100.00
56038;BME280;41907;47.848;9.000;2024-01-11T03:38:21;96519.38;;;-5.29;100.00
56038;BME280;41907;47.848;9.000;2024-01-11T03:40:46;96516.34;;;-5.32;100.00
56038;BME280;41907;47.848;9.000;2024-01-11T03:43:11;96516.53;;;-5.34;100.00
56038;BME280;41907;47.848;9.000;2024-01-11T03:45:37;96518.91;;;-5.39;100.00
56038;BME280;41907;47.848;9.000;2024-01-11T03:48:02;96518.69;;;-5.37;100.00
56038;BME280;41907;47.848;9.000;2024-01-11T03:50:33;96522.19;;;-5.51;100.00
56038;BME280;41907;47.848;9.000;2024-01-11T03:53:00;96516.41;;;-5.47;100.00
56038;BME280;41907;47.848;9.000;2024-01-11T03:55:26;96519.22;;;-5.48;100.00
56038;BME280;41907;47.848;9.000;2024-01-11T03:57:51;96499.66;;;-5.66;100.00
56038;BME280;41907;47.848;9.000;2024-01-11T04:00:17;96509.63;;;-5.69;100.00
56038;BME280;41907;47.848;9.000;2024-01-11T04:02:43;96512.47;;;-5.64;100.00
56038;BME280;41907;47.848;9.000;2024-01-11T04:05:08;96508.66;;;-5.68;100.00
56038;BME280;41907;47.848;9.000;2024-01-11T04:07:34;96517.00;;;-5.73;100.00
56038;BME280;41907;47.848;9.000;2024-01-11T04:09:59;96506.84;;;-5.68;100.00
56038;BME280;41907;47.848;9.000;2024-01-11T04:12:25;96504.81;;;-5.72;100.00
56038;BME280;41907;47.848;9.000;2024-01-11T04:14:50;96491.34;;;-5.82;100.00
56038;BME280;41907;47.848;9.000;2024-01-11T04:17:16;96505.78;;;-5.73;100.00
56038;BME280;41907;47.848;9.000;2024-01-11T04:19:41;96507.53;;;-5.80;100.00
56038;BME280;41907;47.848;9.000;2024-01-11T04:22:07;96508.25;;;-5.93;100.00
56038;BME280;41907;47.848;9.000;2024-01-11T04:24:32;96510.59;;;-5.77;100.00
56038;BME280;41907;47.848;9.000;2024-01-11T04:26:57;96508.88;;;-5.84;100.00
56038;BME280;41907;47.848;9.000;2024-01-11T04:29:23;96496.13;;;-5.86;100.00
56038;BME280;41907;47.848;9.000;2024-01-11T04:31:49;96511.25;;;-5.68;100.00
56038;BME280;41907;47.848;9.000;2024-01-11T04:34:14;96501.22;;;-5.71;100.00
56038;BME280;41907;47.848;9.000;2024-01-11T04:36:40;96502.84;;;-5.70;100.00
56038;BME280;41907;47.848;9.000;2024-01-11T04:39:05;96506.84;;;-5.68;100.00
56038;BME280;41907;47.848;9.000;2024-01-11T04:41:34;96501.59;;;-5.74;100.00
56038;BME280;41907;47.848;9.000;2024-01-11T04:44:00;96508.09;;;-5.85;100.00
56038;BME280;41907;47.848;9.000;2024-01-11T04:46:25;96500.50;;;-5.86;100.00
56038;BME280;41907;47.848;9.000;2024-01-11T04:48:51;96490.91;;;-5.86;100.00
56038;BME280;41907;47.848;9.000;2024-01-11T04:51:18;96500.44;;;-5.93;100.00
56038;BME280;41907;47.848;9.000;2024-01-11T04:53:44;96499.31;;;-5.84;100.00
56038;BME280;41907;47.848;9.000;2024-01-11T04:56:11;96483.47;;;-5.95;100.00
56038;BME280;41907;47.848;9.000;2024-01-11T04:58:40;96473.63;;;-6.00;100.00
56038;BME280;41907;47.848;9.000;2024-01-11T05:01:06;96493.94;;;-5.82;100.00
56038;BME280;41907;47.848;9.000;2024-01-11T05:03:32;96487.91;;;-5.89;100.00
56038;BME280;41907;47.848;9.000;2024-01-11T05:05:58;96483.19;;;-6.01;100.00
56038;BME280;41907;47.848;9.000;2024-01-11T05:08:27;96492.56;;;-6.06;100.00
56038;BME280;41907;47.848;9.000;2024-01-11T05:10:53;96477.09;;;-6.14;100.00
56038;BME280;41907;47.848;9.000;2024-01-11T05:13:18;96468.00;;;-6.25;100.00
56038;BME280;41907;47.848;9.000;2024-01-11T05:15:44;96483.19;;;-6.22;100.00
56038;BME280;41907;47.848;9.000;2024-01-11T05:18:10;96476.72;;;-6.32;100.00
56038;BME280;41907;47.848;9.000;2024-01-11T05:20:36;96502.97;;;-6.21;100.00
56038;BME280;41907;47.848;9.000;2024-01-11T05:23:01;96507.34;;;-6.43;100.00
56038;BME280;41907;47.848;9.000;2024-01-11T05:25:27;96510.66;;;-6.49;100.00
56038;BME280;41907;47.848;9.000;2024-01-11T05:27:52;96501.69;;;-6.46;100.00
56038;BME280;41907;47.848;9.000;2024-01-11T05:30:18;96507.00;;;-6.54;100.00
56038;BME280;41907;47.848;9.000;2024-01-11T05:32:43;96508.31;;;-6.44;100.00
56038;BME280;41907;47.848;9.000;2024-01-11T05:35:08;96511.28;;;-6.47;100.00
56038;BME280;41907;47.848;9.000;2024-01-11T05:37:35;96513.34;;;-6.57;100.00
56038;BME280;41907;47.848;9.000;2024-01-11T05:40:01;96509.59;;;-6.69;100.00
56038;BME280;41907;47.848;9.000;2024-01-11T05:42:26;96512.56;;;-6.72;100.00
56038;BME280;41907;47.848;9.000;2024-01-11T05:44:52;96526.44;;;-6.80;100.00
56038;BME280;41907;47.848;9.000;2024-01-11T05:47:17;96532.34;;;-6.86;100.00
56038;BME280;41907;47.848;9.000;2024-01-11T05:49:43;96528.59;;;-6.83;100.00
56038;BME280;41907;47.848;9.000;2024-01-11T05:52:08;96529.56;;;-6.84;100.00
56038;BME280;41907;47.848;9.000;2024-01-11T05:54:33;96523.41;;;-6.83;100.00
56038;BME280;41907;47.848;9.000;2024-01-11T05:56:59;96533.78;;;-6.83;100.00
56038;BME280;41907;47.848;9.000;2024-01-11T05:59:24;96545.13;;;-6.84;100.00
56038;BME280;41907;47.848;9.000;2024-01-11T06:01:50;96548.44;;;-6.90;100.00
56038;BME280;41907;47.848;9.000;2024-01-11T06:04:15;96550.22;;;-6.91;100.00
56038;BME280;41907;47.848;9.000;2024-01-11T06:06:41;96552.91;;;-6.84;100.00
56038;BME280;41907;47.848;9.000;2024-01-11T06:09:07;96547.53;;;-6.83;100.00
56038;BME280;41907;47.848;9.000;2024-01-11T06:11:33;96553.16;;;-6.79;100.00
56038;BME280;41907;47.848;9.000;2024-01-11T06:13:58;96553.91;;;-6.70;100.00
56038;BME280;41907;47.848;9.000;2024-01-11T06:16:24;96553.91;;;-6.70;100.00
56038;BME280;41907;47.848;9.000;2024-01-11T06:18:50;96558.34;;;-6.64;100.00
56038;BME280;41907;47.848;9.000;2024-01-11T06:21:15;96555.66;;;-6.56;100.00
56038;BME280;41907;47.848;9.000;2024-01-11T06:23:43;96553.25;;;-6.58;100.00
56038;BME280;41907;47.848;9.000;2024-01-11T06:26:08;96551.47;;;-6.57;100.00
56038;BME280;41907;47.848;9.000;2024-01-11T06:28:33;96557.97;;;-6.47;100.00
56038;BME280;41907;47.848;9.000;2024-01-11T06:30:59;96552.63;;;-6.45;100.00
56038;BME280;41907;47.848;9.000;2024-01-11T06:33:24;96553.03;;;-6.42;100.00
56038;BME280;41907;47.848;9.000;2024-01-11T06:35:50;96555.63;;;-6.42;100.00
56038;BME280;41907;47.848;9.000;2024-01-11T06:38:15;96563.25;;;-6.40;100.00
56038;BME280;41907;47.848;9.000;2024-01-11T06:40:41;96560.28;;;-6.37;100.00
56038;BME280;41907;47.848;9.000;2024-01-11T06:43:06;96563.41;;;-6.42;100.00
56038;BME280;41907;47.848;9.000;2024-01-11T06:45:32;96571.47;;;-6.36;100.00
56038;BME280;41907;47.848;9.000;2024-01-11T06:47:57;96571.72;;;-6.31;100.00
56038;BME280;41907;47.848;9.000;2024-01-11T06:50:22;96567.72;;;-6.34;100.00
56038;BME280;41907;47.848;9.000;2024-01-11T06:52:48;96578.81;;;-6.25;100.00
56038;BME280;41907;47.848;9.000;2024-01-11T06:55:13;96578.63;;;-6.24;100.00
56038;BME280;41907;47.848;9.000;2024-01-11T06:57:39;96582.28;;;-6.18;100.00
56038;BME280;41907;47.848;9.000;2024-01-11T07:00:05;96585.50;;;-6.16;100.00
56038;BME280;41907;47.848;9.000;2024-01-11T07:02:32;96598.09;;;-6.13;100.00
56038;BME280;41907;47.848;9.000;2024-01-11T07:04:58;96586.13;;;-6.14;100.00
56038;BME280;41907;47.848;9.000;2024-01-11T07:07:23;96589.91;;;-6.17;100.00
56038;BME280;41907;47.848;9.000;2024-01-11T07:09:48;96590.03;;;-6.04;100.00
56038;BME280;41907;47.848;9.000;2024-01-11T07:12:14;96595.84;;;-6.02;100.00
56038;BME280;41907;47.848;9.000;2024-01-11T07:14:39;96593.06;;;-6.00;100.00
56038;BME280;41907;47.848;9.000;2024-01-11T07:17:05;96583.44;;;-6.06;100.00
56038;BME280;41907;47.848;9.000;2024-01-11T07:19:31;96590.13;;;-5.97;100.00
56038;BME280;41907;47.848;9.000;2024-01-11T07:21:56;96598.16;;;-5.92;100.00
56038;BME280;41907;47.848;9.000;2024-01-11T07:24:22;96595.50;;;-5.98;100.00
56038;BME280;41907;47.848;9.000;2024-01-11T07:26:47;96598.34;;;-5.93;100.00
56038;BME280;41907;47.848;9.000;2024-01-11T07:29:13;96615.97;;;-5.89;100.00
56038;BME280;41907;47.848;9.000;2024-01-11T07:31:39;96611.50;;;-5.74;100.00
56038;BME280;41907;47.848;9.000;2024-01-11T07:34:05;96621.38;;;-5.84;100.00
56038;BME280;41907;47.848;9.000;2024-01-11T07:36:30;96621.66;;;-5.79;100.00
56038;BME280;41907;47.848;9.000;2024-01-11T07:38:56;96625.75;;;-5.70;100.00
56038;BME280;41907;47.848;9.000;2024-01-11T07:41:22;96625.28;;;-5.58;100.00
56038;BME280;41907;47.848;9.000;2024-01-11T07:43:47;96631.06;;;-5.56;100.00
56038;BME280;41907;47.848;9.000;2024-01-11T07:46:13;96624.06;;;-5.56;100.00
56038;BME280;41907;47.848;9.000;2024-01-11T07:48:38;96642.19;;;-5.48;100.00
56038;BME280;41907;47.848;9.000;2024-01-11T07:51:04;96622.19;;;-5.47;100.00
56038;BME280;41907;47.848;9.000;2024-01-11T07:53:30;96615.47;;;-5.35;100.00
56038;BME280;41907;47.848;9.000;2024-01-11T07:55:57;96630.84;;;-5.19;100.00
56038;BME280;41907;47.848;9.000;2024-01-11T07:58:23;96633.19;;;-5.24;100.00
56038;BME280;41907;47.848;9.000;2024-01-11T08:00:48;96627.44;;;-5.19;100.00
56038;BME280;41907;47.848;9.000;2024-01-11T08:03:14;96634.53;;;-5.07;100.00
56038;BME280;41907;47.848;9.000;2024-01-11T08:05:40;96634.13;;;-5.10;100.00
56038;BME280;41907;47.848;9.000;2024-01-11T08:08:05;96635.97;;;-5.04;100.00
56038;BME280;41907;47.848;9.000;2024-01-11T08:10:31;96640.47;;;-4.92;100.00
56038;BME280;41907;47.848;9.000;2024-01-11T08:12:56;96620.06;;;-5.16;100.00
56038;BME280;41907;47.848;9.000;2024-01-11T08:15:22;96647.81;;;-5.02;100.00
56038;BME280;41907;47.848;9.000;2024-01-11T08:17:47;96643.72;;;-5.11;100.00
56038;BME280;41907;47.848;9.000;2024-01-11T08:20:14;96649.47;;;-5.15;100.00
56038;BME280;41907;47.848;9.000;2024-01-11T08:22:40;96654.63;;;-5.22;100.00
56038;BME280;41907;47.848;9.000;2024-01-11T08:25:06;96652.03;;;-5.22;100.00
56038;BME280;41907;47.848;9.000;2024-01-11T08:27:32;96657.34;;;-5.30;100.00
56038;BME280;41907;47.848;9.000;2024-01-11T08:29:58;96657.03;;;-5.20;100.00
56038;BME280;41907;47.848;9.000;2024-01-11T08:32:25;96663.34;;;-5.30;100.00
56038;BME280;41907;47.848;9.000;2024-01-11T08:34:50;96657.47;;;-5.38;100.00
56038;BME280;41907;47.848;9.000;2024-01-11T08:37:16;96667.97;;;-5.25;100.00
56038;BME280;41907;47.848;9.000;2024-01-11T08:39:41;96672.63;;;-5.20;100.00
56038;BME280;41907;47.848;9.000;2024-01-11T08:42:07;96639.31;;;-5.32;100.00
56038;BME280;41907;47.848;9.000;2024-01-11T08:44:32;96663.28;;;-5.15;100.00
56038;BME280;41907;47.848;9.000;2024-01-11T08:46:58;96673.44;;;-5.20;100.00
56038;BME280;41907;47.848;9.000;2024-01-11T08:49:25;96667.72;;;-5.09;100.00
56038;BME280;41907;47.848;9.000;2024-01-11T08:51:50;96663.59;;;-5.03;100.00
56038;BME280;41907;47.848;9.000;2024-01-11T08:54:16;96668.25;;;-5.20;100.00
56038;BME280;41907;47.848;9.000;2024-01-11T08:56:42;96666.38;;;-5.26;100.00
56038;BME280;41907;47.848;9.000;2024-01-11T08:59:07;96662.53;;;-5.30;100.00
56038;BME280;41907;47.848;9.000;2024-01-11T09:01:35;96660.19;;;-5.25;100.00
56038;BME280;41907;47.848;9.000;2024-01-11T09:04:01;96660.50;;;-5.13;100.00
56038;BME280;41907;47.848;9.000;2024-01-11T09:06:27;96663.28;;;-5.15;100.00
56038;BME280;41907;47.848;9.000;2024-01-11T09:08:52;96674.34;;;-5.06;100.00
56038;BME280;41907;47.848;9.000;2024-01-11T09:11:18;96668.06;;;-4.91;100.00
56038;BME280;41907;47.848;9.000;2024-01-11T09:13:43;96658.78;;;-5.00;100.00
56038;BME280;41907;47.848;9.000;2024-01-11T09:16:09;96664.41;;;-5.03;100.00
56038;BME280;41907;47.848;9.000;2024-01-11T09:18:35;96668.03;;;-4.97;100.00
56038;BME280;41907;47.848;9.000;2024-01-11T09:21:01;96658.28;;;-4.89;100.00
56038;BME280;41907;47.848;9.000;2024-01-11T09:23:28;96676.50;;;-4.89;100.00
56038;BME280;41907;47.848;9.000;2024-01-11T09:25:54;96670.09;;;-4.93;100.00
56038;BME280;41907;47.848;9.000;2024-01-11T09:28:19;96675.97;;;-4.84;100.00
56038;BME280;41907;47.848;9.000;2024-01-11T09:30:45;96664.75;;;-4.84;100.00
56038;BME280;41907;47.848;9.000;2024-01-11T09:33:10;96677.72;;;-4.63;100.00
56038;BME280;41907;47.848;9.000;2024-01-11T09:35:36;96669.03;;;-4.42;100.00
56038;BME280;41907;47.848;9.000;2024-01-11T09:38:01;96677.09;;;-4.37;100.00
56038;BME280;41907;47.848;9.000;2024-01-11T09:40:27;96678.94;;;-4.31;100.00
56038;BME280;41907;47.848;9.000;2024-01-11T09:42:52;96688.00;;;-4.21;100.00
56038;BME280;41907;47.848;9.000;2024-01-11T09:45:18;96688.44;;;-4.17;100.00
56038;BME280;41907;47.848;9.000;2024-01-11T09:47:44;96685.09;;;-4.04;100.00
56038;BME280;41907;47.848;9.000;2024-01-11T09:50:15;96695.06;;;-4.15;100.00
56038;BME280;41907;47.848;9.000;2024-01-11T09:52:48;96698.19;;;-3.98;100.00
56038;BME280;41907;47.848;9.000;2024-01-11T09:55:14;96695.31;;;-4.03;100.00
56038;BME280;41907;47.848;9.000;2024-01-11T09:57:44;96703.09;;;-4.16;100.00
56038;BME280;41907;47.848;9.000;2024-01-11T10:00:13;96721.25;;;-4.23;100.00
56038;BME280;41907;47.848;9.000;2024-01-11T10:02:39;96707.34;;;-4.36;100.00
56038;BME280;41907;47.848;9.000;2024-01-11T10:05:05;96698.47;;;-4.42;100.00
56038;BME280;41907;47.848;9.000;2024-01-11T10:07:32;96726.97;;;-4.34;100.00
56038;BME280;41907;47.848;9.000;2024-01-11T10:09:58;96719.94;;;-4.40;100.00
56038;BME280;41907;47.848;9.000;2024-01-11T10:12:24;96709.34;;;-4.38;100.00
56038;BME280;41907;47.848;9.000;2024-01-11T10:14:51;96705.75;;;-4.37;100.00
56038;BME280;41907;47.848;9.000;2024-01-11T10:17:17;96701.19;;;-4.29;100.00
56038;BME280;41907;47.848;9.000;2024-01-11T10:19:43;96702.75;;;-4.34;100.00
56038;BME280;41907;47.848;9.000;2024-01-11T10:22:08;96702.38;;;-4.31;100.00
56038;BME280;41907;47.848;9.000;2024-01-11T10:24:38;96710.63;;;-4.28;100.00
56038;BME280;41907;47.848;9.000;2024-01-11T10:27:03;96696.16;;;-4.30;100.00
56038;BME280;41907;47.848;9.000;2024-01-11T10:29:35;96695.59;;;-4.26;100.00
56038;BME280;41907;47.848;9.000;2024-01-11T10:32:03;96700.59;;;-4.24;100.00
56038;BME280;41907;47.848;9.000;2024-01-11T10:34:28;96704.44;;;-4.20;100.00
56038;BME280;41907;47.848;9.000;2024-01-11T10:36:54;96699.06;;;-4.19;100.00
56038;BME280;41907;47.848;9.000;2024-01-11T10:39:26;96699.81;;;-3.90;100.00
56038;BME280;41907;47.848;9.000;2024-01-11T10:42:03;96706.13;;;-3.65;100.00
56038;BME280;41907;47.848;9.000;2024-01-11T10:44:33;96701.34;;;-3.55;100.00
56038;BME280;41907;47.848;9.000;2024-01-11T10:46:59;96692.19;;;-3.85;100.00
56038;BME280;41907;47.848;9.000;2024-01-11T10:49:27;96690.66;;;-3.73;100.00
56038;BME280;41907;47.848;9.000;2024-01-11T10:51:59;96683.47;;;-3.64;100.00
56038;BME280;41907;47.848;9.000;2024-01-11T10:54:27;96695.50;;;-3.70;100.00
56038;BME280;41907;47.848;9.000;2024-01-11T10:56:54;96683.13;;;-3.96;100.00
56038;BME280;41907;47.848;9.000;2024-01-11T10:59:20;96671.66;;;-4.08;100.00
56038;BME280;41907;47.848;9.000;2024-01-11T11:01:51;96670.34;;;-3.84;100.00
56038;BME280;41907;47.848;9.000;2024-01-11T11:04:18;96676.41;;;-3.77;100.00
56038;BME280;41907;47.848;9.000;2024-01-11T11:06:44;96677.88;;;-3.61;100.00
56038;BME280;41907;47.848;9.000;2024-01-11T11:09:11;96683.84;;;-3.67;100.00
56038;BME280;41907;47.848;9.000;2024-01-11T11:11:39;96670.00;;;-3.68;100.00
56038;BME280;41907;47.848;9.000;2024-01-11T11:14:05;96672.31;;;-3.52;100.00
56038;BME280;41907;47.848;9.000;2024-01-11T11:16:31;96641.59;;;-3.56;100.00
56038;BME280;41907;47.848;9.000;2024-01-11T11:18:57;96650.50;;;-3.31;100.00
56038;BME280;41907;47.848;9.000;2024-01-11T11:21:22;96655.28;;;-3.28;100.00
56038;BME280;41907;47.848;9.000;2024-01-11T11:23:50;96640.88;;;-3.17;100.00
56038;BME280;41907;47.848;9.000;2024-01-11T11:26:16;96649.94;;;-2.93;100.00
56038;BME280;41907;47.848;9.000;2024-01-11T11:28:42;96650.53;;;-2.98;100.00
56038;BME280;41907;47.848;9.000;2024-01-11T11:31:10;96645.13;;;-2.83;100.00
56038;BME280;41907;47.848;9.000;2024-01-11T11:33:36;96648.72;;;-2.91;100.00
56038;BME280;41907;47.848;9.000;2024-01-11T11:36:02;96650.72;;;-3.00;100.00
56038;BME280;41907;47.848;9.000;2024-01-11T11:38:29;96638.47;;;-3.12;100.00
56038;BME280;41907;47.848;9.000;2024-01-11T11:40:57;96645.69;;;-3.08;100.00
56038;BME280;41907;47.848;9.000;2024-01-11T11:43:23;96648.09;;;-3.06;100.00
56038;BME280;41907;47.848;9.000;2024-01-11T11:45:50;96638.28;;;-2.97;100.00
56038;BME280;41907;47.848;9.000;2024-01-11T11:53:34;96639.88;;;-2.70;100.00
56038;BME280;41907;47.848;9.000;2024-01-11T11:56:01;96633.47;;;-2.74;100.00
56038;BME280;41907;47.848;9.000;2024-01-11T11:58:27;96642.06;;;-2.54;100.00
56038;BME280;41907;47.848;9.000;2024-01-11T12:00:54;96636.84;;;-2.60;100.00
56038;BME280;41907;47.848;9.000;2024-01-11T12:03:20;96632.66;;;-2.68;100.00
56038;BME280;41907;47.848;9.000;2024-01-11T12:05:45;96628.03;;;-2.73;100.00
56038;BME280;41907;47.848;9.000;2024-01-11T12:08:11;96631.44;;;-2.72;100.00
56038;BME280;41907;47.848;9.000;2024-01-11T12:10:36;96625.25;;;-2.84;100.00
56038;BME280;41907;47.848;9.000;2024-01-11T12:13:02;96622.63;;;-2.78;100.00
56038;BME280;41907;47.848;9.000;2024-01-11T12:15:27;96631.84;;;-2.62;100.00
56038;BME280;41907;47.848;9.000;2024-01-11T12:18:01;96614.97;;;-2.46;100.00
56038;BME280;41907;47.848;9.000;2024-01-11T12:20:28;96619.16;;;-2.45;100.00
56038;BME280;41907;47.848;9.000;2024-01-11T12:22:54;96615.19;;;-2.68;100.00
56038;BME280;41907;47.848;9.000;2024-01-11T12:25:20;96622.81;;;-2.66;100.00
56038;BME280;41907;47.848;9.000;2024-01-11T12:27:46;96627.22;;;-2.73;100.00
56038;BME280;41907;47.848;9.000;2024-01-11T12:30:12;96620.63;;;-2.76;100.00
56038;BME280;41907;47.848;9.000;2024-01-11T12:32:42;96624.59;;;-2.73;100.00
56038;BME280;41907;47.848;9.000;2024-01-11T12:35:07;96632.84;;;-2.83;100.00
56038;BME280;41907;47.848;9.000;2024-01-11T12:37:33;96630.47;;;-2.84;100.00
56038;BME280;41907;47.848;9.000;2024-01-11T12:39:58;96636.88;;;-2.80;100.00
56038;BME280;41907;47.848;9.000;2024-01-11T12:42:27;96632.66;;;-2.81;100.00
56038;BME280;41907;47.848;9.000;2024-01-11T12:44:53;96637.06;;;-2.82;100.00
56038;BME280;41907;47.848;9.000;2024-01-11T12:47:18;96644.09;;;-2.89;100.00
56038;BME280;41907;47.848;9.000;2024-01-11T12:49:45;96641.28;;;-2.81;100.00